Pagina principale
METAR-TAF:

METAR-TAF

Aeroporti :

Le Mans, Francia

latitudine: 47-56N, longitudine: 000-12E, altezza: 59 m

Osservazione

Il bollettino è stato emesso 44 minuti fa, alle 07:00 UTC
Vento 3 kt da nord, variando fra nord-ovest e nord-est
Temperature 15°C
Umidità 77%
Pressione 1024 hPa
Visibilità 10 km o più
Poco nuvoloso ad un'altezza di 4700 ft
Nubi sparse ad un'altezza di 6000 ft

METAR: LFRM 200700Z AUTO 35003KT 320V040 9999 FEW047 SCT060 15/11 Q1024 NOSIG

Ora: 09:44 (07:44 UTC)

Previsione

Il bollettino è stato emesso 2 ore e 44 minuti fa, alle 05:00 UTC
Previsione valida dal 20 alle 06 UTC al 21 alle 06 UTC
Vento 6 kt da est/nord-est
Visibilità 10 km o più
nessuna nube inferiore a 1500 m e nessun cumulonembo

TAF: LFRM 200500Z 2006/2106 07006KT CAVOK

Osservazioni e previsioni meteorologiche di più di 4000 aeroporti (messaggi METAR e TAF).

Le stazioni disponibili sono rappresentate dai dischi gialli e rossi sulla carta.

Puntare il mouse per vedere il nome della stazione.

Clicca sopra per visualizzare le osservazioni e previsioni meteorologiche.

Per cambiare la mappa : fare clic sui pulsanti verdi con una croce nera per ingrandire, il pulsante verde con un trattino per diminuire, o sulla freccia verde per le mappe adiacenti.


METAR-TAF: